sensor_id;sensor_type;location;lat;lon;timestamp;pressure;altitude;pressure_sealevel;temperature;humidity
31225;BME280;17847;31.524;74.366;2023-11-21T00:00:17;99170.00;;;14.89;nan
31225;BME280;17847;31.524;74.366;2023-11-21T00:02:47;99174.91;;;14.92;nan
31225;BME280;17847;31.524;74.366;2023-11-21T00:05:16;99174.72;;;14.87;nan
31225;BME280;17847;31.524;74.366;2023-11-21T00:07:46;99166.31;;;14.83;nan
31225;BME280;17847;31.524;74.366;2023-11-21T00:10:15;99170.44;;;14.79;nan
31225;BME280;17847;31.524;74.366;2023-11-21T00:12:45;99166.13;;;14.78;nan
31225;BME280;17847;31.524;74.366;2023-11-21T00:15:17;99175.97;;;14.84;nan
31225;BME280;17847;31.524;74.366;2023-11-21T00:17:47;99174.53;;;14.82;nan
31225;BME280;17847;31.524;74.366;2023-11-21T00:20:17;99176.78;;;14.78;nan
31225;BME280;17847;31.524;74.366;2023-11-21T00:22:47;99183.56;;;14.81;nan
31225;BME280;17847;31.524;74.366;2023-11-21T00:25:17;99188.28;;;14.79;nan
31225;BME280;17847;31.524;74.366;2023-11-21T00:27:46;99188.69;;;14.76;nan
31225;BME280;17847;31.524;74.366;2023-11-21T00:30:15;99183.78;;;14.73;nan
31225;BME280;17847;31.524;74.366;2023-11-21T00:32:45;99178.44;;;14.73;nan
31225;BME280;17847;31.524;74.366;2023-11-21T00:35:15;99188.28;;;14.66;nan
31225;BME280;17847;31.524;74.366;2023-11-21T00:37:44;99199.34;;;14.69;nan
31225;BME280;17847;31.524;74.366;2023-11-21T00:40:14;99194.25;;;14.68;nan
31225;BME280;17847;31.524;74.366;2023-11-21T00:42:44;99188.28;;;14.66;nan
31225;BME280;17847;31.524;74.366;2023-11-21T00:45:14;99199.97;;;14.65;nan
31225;BME280;17847;31.524;74.366;2023-11-21T00:47:45;99198.16;;;14.59;nan
31225;BME280;17847;31.524;74.366;2023-11-21T00:50:14;99200.81;;;14.59;nan
31225;BME280;17847;31.524;74.366;2023-11-21T00:52:44;99198.16;;;14.59;nan
31225;BME280;17847;31.524;74.366;2023-11-21T00:55:14;99203.88;;;14.62;nan
31225;BME280;17847;31.524;74.366;2023-11-21T00:57:43;99206.34;;;14.64;nan
31225;BME280;17847;31.524;74.366;2023-11-21T01:00:13;99201.84;;;14.64;nan
31225;BME280;17847;31.524;74.366;2023-11-21T01:02:46;99210.03;;;14.69;nan
31225;BME280;17847;31.524;74.366;2023-11-21T01:05:17;99205.94;;;14.67;nan
31225;BME280;17847;31.524;74.366;2023-11-21T01:07:46;99220.50;;;14.71;nan
31225;BME280;17847;31.524;74.366;2023-11-21T01:10:17;99218.22;;;14.74;nan
31225;BME280;17847;31.524;74.366;2023-11-21T01:12:47;99224.38;;;14.75;nan
31225;BME280;17847;31.524;74.366;2023-11-21T01:15:17;99225.41;;;14.74;nan
31225;BME280;17847;31.524;74.366;2023-11-21T01:17:47;99229.72;;;14.68;nan
31225;BME280;17847;31.524;74.366;2023-11-21T01:20:17;99231.97;;;14.65;nan
31225;BME280;17847;31.524;74.366;2023-11-21T01:22:47;99228.91;;;14.55;nan
31225;BME280;17847;31.524;74.366;2023-11-21T01:25:18;99229.94;;;14.54;nan
31225;BME280;17847;31.524;74.366;2023-11-21T01:27:49;99232.78;;;14.52;nan
31225;BME280;17847;31.524;74.366;2023-11-21T01:30:19;99230.94;;;14.53;nan
31225;BME280;17847;31.524;74.366;2023-11-21T01:32:48;99228.69;;;14.50;nan
31225;BME280;17847;31.524;74.366;2023-11-21T01:35:18;99231.56;;;14.48;nan
31225;BME280;17847;31.524;74.366;2023-11-21T01:37:48;99235.88;;;14.56;nan
31225;BME280;17847;31.524;74.366;2023-11-21T01:40:18;99233.81;;;14.58;nan
31225;BME280;17847;31.524;74.366;2023-11-21T01:42:47;99242.22;;;14.61;nan
31225;BME280;17847;31.524;74.366;2023-11-21T01:45:17;99246.72;;;14.61;nan
31225;BME280;17847;31.524;74.366;2023-11-21T01:47:46;99241.63;;;14.59;nan
31225;BME280;17847;31.524;74.366;2023-11-21T01:50:17;99242.84;;;14.57;nan
31225;BME280;17847;31.524;74.366;2023-11-21T01:52:48;99260.06;;;14.61;nan
31225;BME280;17847;31.524;74.366;2023-11-21T01:55:18;99254.94;;;14.66;nan
31225;BME280;17847;31.524;74.366;2023-11-21T01:57:58;99260.91;;;14.68;nan
31225;BME280;17847;31.524;74.366;2023-11-21T02:00:27;99265.59;;;14.66;nan
31225;BME280;17847;31.524;74.366;2023-11-21T02:02:58;99273.59;;;14.66;nan
31225;BME280;17847;31.524;74.366;2023-11-21T02:05:28;99269.50;;;14.70;nan
31225;BME280;17847;31.524;74.366;2023-11-21T02:07:58;99274.03;;;14.76;nan
31225;BME280;17847;31.524;74.366;2023-11-21T02:10:30;99277.09;;;14.73;nan
31225;BME280;17847;31.524;74.366;2023-11-21T02:13:00;99284.91;;;14.81;nan
31225;BME280;17847;31.524;74.366;2023-11-21T02:15:31;99278.13;;;14.85;nan
31225;BME280;17847;31.524;74.366;2023-11-21T02:18:01;99281.19;;;14.89;nan
31225;BME280;17847;31.524;74.366;2023-11-21T02:20:32;99284.47;;;14.97;nan
31225;BME280;17847;31.524;74.366;2023-11-21T02:23:04;99281.78;;;15.10;nan
31225;BME280;17847;31.524;74.366;2023-11-21T02:25:33;99283.44;;;15.11;nan
31225;BME280;17847;31.524;74.366;2023-11-21T02:28:06;99283.84;;;15.21;nan
31225;BME280;17847;31.524;74.366;2023-11-21T02:30:35;99286.09;;;15.31;nan
31225;BME280;17847;31.524;74.366;2023-11-21T02:33:06;99293.63;;;15.41;nan
31225;BME280;17847;31.524;74.366;2023-11-21T02:35:36;99291.19;;;15.39;nan
31225;BME280;17847;31.524;74.366;2023-11-21T02:38:06;99287.28;;;15.42;nan
31225;BME280;17847;31.524;74.366;2023-11-21T02:40:36;99296.09;;;15.49;nan
31225;BME280;17847;31.524;74.366;2023-11-21T02:43:05;99302.84;;;15.64;nan
31225;BME280;17847;31.524;74.366;2023-11-21T02:45:34;99302.22;;;15.69;nan
31225;BME280;17847;31.524;74.366;2023-11-21T02:48:04;99307.34;;;15.77;nan
31225;BME280;17847;31.524;74.366;2023-11-21T02:50:35;99300.13;;;15.84;nan
31225;BME280;17847;31.524;74.366;2023-11-21T02:53:05;99313.81;;;16.01;nan
31225;BME280;17847;31.524;74.366;2023-11-21T02:55:37;99309.25;;;16.08;nan
31225;BME280;17847;31.524;74.366;2023-11-21T02:58:06;99312.88;;;16.20;nan
31225;BME280;17847;31.524;74.366;2023-11-21T03:00:36;99310.59;;;16.30;nan
31225;BME280;17847;31.524;74.366;2023-11-21T03:03:05;99321.19;;;16.43;nan
31225;BME280;17847;31.524;74.366;2023-11-21T03:05:34;99322.16;;;16.62;nan
31225;BME280;17847;31.524;74.366;2023-11-21T03:08:07;99326.19;;;16.96;nan
31225;BME280;17847;31.524;74.366;2023-11-21T03:10:37;99329.56;;;17.16;nan
31225;BME280;17847;31.524;74.366;2023-11-21T03:13:06;99328.34;;;17.55;nan
31225;BME280;17847;31.524;74.366;2023-11-21T03:15:37;99328.66;;;18.02;nan
31225;BME280;17847;31.524;74.366;2023-11-21T03:18:06;99329.63;;;18.55;nan
31225;BME280;17847;31.524;74.366;2023-11-21T03:20:37;99320.75;;;18.84;nan
31225;BME280;17847;31.524;74.366;2023-11-21T03:23:06;99326.25;;;19.01;nan
31225;BME280;17847;31.524;74.366;2023-11-21T03:25:36;99331.16;;;19.16;nan
31225;BME280;17847;31.524;74.366;2023-11-21T03:28:05;99318.31;;;19.29;nan
31225;BME280;17847;31.524;74.366;2023-11-21T03:30:37;99333.63;;;19.52;nan
31225;BME280;17847;31.524;74.366;2023-11-21T03:33:06;99327.19;;;19.77;nan
31225;BME280;17847;31.524;74.366;2023-11-21T03:35:37;99329.84;;;20.00;nan
31225;BME280;17847;31.524;74.366;2023-11-21T03:38:06;99324.47;;;20.28;nan
31225;BME280;17847;31.524;74.366;2023-11-21T03:40:35;99327.72;;;20.42;nan
31225;BME280;17847;31.524;74.366;2023-11-21T03:43:05;99331.72;;;20.39;nan
31225;BME280;17847;31.524;74.366;2023-11-21T03:45:35;99343.44;;;20.61;nan
31225;BME280;17847;31.524;74.366;2023-11-21T03:48:04;99341.69;;;20.84;nan
31225;BME280;17847;31.524;74.366;2023-11-21T03:50:37;99335.81;;;21.20;nan
31225;BME280;17847;31.524;74.366;2023-11-21T03:53:07;99347.59;;;21.69;nan
31225;BME280;17847;31.524;74.366;2023-11-21T03:55:37;99346.75;;;21.85;nan
31225;BME280;17847;31.524;74.366;2023-11-21T03:58:06;99344.72;;;21.92;nan
31225;BME280;17847;31.524;74.366;2023-11-21T04:00:36;99353.31;;;22.33;nan
31225;BME280;17847;31.524;74.366;2023-11-21T04:03:05;99365.59;;;22.46;nan
31225;BME280;17847;31.524;74.366;2023-11-21T04:05:35;99362.81;;;22.89;nan
31225;BME280;17847;31.524;74.366;2023-11-21T04:08:04;99371.75;;;23.21;nan
31225;BME280;17847;31.524;74.366;2023-11-21T04:10:34;99361.19;;;23.20;nan
31225;BME280;17847;31.524;74.366;2023-11-21T04:13:03;99363.03;;;23.46;nan
31225;BME280;17847;31.524;74.366;2023-11-21T04:15:34;99362.56;;;24.01;nan
31225;BME280;17847;31.524;74.366;2023-11-21T04:18:03;99364.84;;;24.20;nan
31225;BME280;17847;31.524;74.366;2023-11-21T04:20:33;99371.06;;;24.20;nan
31225;BME280;17847;31.524;74.366;2023-11-21T04:23:02;99365.41;;;24.27;nan
31225;BME280;17847;31.524;74.366;2023-11-21T04:25:33;99366.47;;;24.26;nan
31225;BME280;17847;31.524;74.366;2023-11-21T04:28:02;99369.00;;;23.85;nan
31225;BME280;17847;31.524;74.366;2023-11-21T04:30:33;99368.38;;;23.78;nan
31225;BME280;17847;31.524;74.366;2023-11-21T04:33:02;99355.34;;;23.65;nan
31225;BME280;17847;31.524;74.366;2023-11-21T04:35:32;99358.00;;;23.60;nan
31225;BME280;17847;31.524;74.366;2023-11-21T04:38:01;99356.94;;;23.61;nan
31225;BME280;17847;31.524;74.366;2023-11-21T04:40:31;99369.19;;;23.37;nan
31225;BME280;17847;31.524;74.366;2023-11-21T04:43:01;99360.88;;;23.85;nan
31225;BME280;17847;31.524;74.366;2023-11-21T04:45:30;99362.63;;;23.64;nan
31225;BME280;17847;31.524;74.366;2023-11-21T04:48:00;99357.75;;;23.61;nan
31225;BME280;17847;31.524;74.366;2023-11-21T04:50:29;99359.75;;;23.81;nan
31225;BME280;17847;31.524;74.366;2023-11-21T04:52:59;99357.56;;;23.78;nan
31225;BME280;17847;31.524;74.366;2023-11-21T04:55:28;99352.41;;;23.77;nan
31225;BME280;17847;31.524;74.366;2023-11-21T04:57:58;99358.13;;;23.80;nan
31225;BME280;17847;31.524;74.366;2023-11-21T05:00:27;99357.81;;;23.71;nan
31225;BME280;17847;31.524;74.366;2023-11-21T05:02:56;99354.28;;;23.71;nan
31225;BME280;17847;31.524;74.366;2023-11-21T05:05:26;99353.50;;;23.76;nan
31225;BME280;17847;31.524;74.366;2023-11-21T05:07:56;99355.94;;;23.72;nan
31225;BME280;17847;31.524;74.366;2023-11-21T05:10:25;99347.47;;;23.63;nan
31225;BME280;17847;31.524;74.366;2023-11-21T05:12:54;99346.16;;;23.66;nan
31225;BME280;17847;31.524;74.366;2023-11-21T05:15:24;99345.53;;;23.54;nan
31225;BME280;17847;31.524;74.366;2023-11-21T05:17:54;99341.50;;;23.24;nan
31225;BME280;17847;31.524;74.366;2023-11-21T05:20:26;99331.50;;;23.25;nan
31225;BME280;17847;31.524;74.366;2023-11-21T05:22:56;99333.50;;;23.40;nan
31225;BME280;17847;31.524;74.366;2023-11-21T05:25:27;99318.59;;;23.37;nan
31225;BME280;17847;31.524;74.366;2023-11-21T05:27:56;99314.56;;;23.35;nan
31225;BME280;17847;31.524;74.366;2023-11-21T05:30:30;99312.06;;;23.28;nan
31225;BME280;17847;31.524;74.366;2023-11-21T05:32:59;99316.63;;;23.59;nan
31225;BME280;17847;31.524;74.366;2023-11-21T05:35:28;99312.25;;;23.48;nan
31225;BME280;17847;31.524;74.366;2023-11-21T05:37:58;99302.88;;;23.66;nan
31225;BME280;17847;31.524;74.366;2023-11-21T05:40:27;99303.81;;;23.97;nan
31225;BME280;17847;31.524;74.366;2023-11-21T05:42:58;99301.88;;;23.87;nan
31225;BME280;17847;31.524;74.366;2023-11-21T05:45:28;99303.53;;;23.93;nan
31225;BME280;17847;31.524;74.366;2023-11-21T05:47:59;99300.78;;;23.83;nan
31225;BME280;17847;31.524;74.366;2023-11-21T05:50:28;99291.88;;;23.88;nan
31225;BME280;17847;31.524;74.366;2023-11-21T05:52:57;99290.84;;;23.94;nan
31225;BME280;17847;31.524;74.366;2023-11-21T05:55:29;99296.00;;;24.05;nan
31225;BME280;17847;31.524;74.366;2023-11-21T05:58:00;99292.22;;;24.06;nan
31225;BME280;17847;31.524;74.366;2023-11-21T06:00:29;99292.84;;;24.19;nan
31225;BME280;17847;31.524;74.366;2023-11-21T06:03:01;99283.53;;;23.99;nan
31225;BME280;17847;31.524;74.366;2023-11-21T06:05:31;99284.06;;;23.96;nan
31225;BME280;17847;31.524;74.366;2023-11-21T06:08:01;99277.44;;;24.29;nan
31225;BME280;17847;31.524;74.366;2023-11-21T06:10:31;99277.16;;;24.21;nan
31225;BME280;17847;31.524;74.366;2023-11-21T06:13:00;99276.06;;;24.32;nan
31225;BME280;17847;31.524;74.366;2023-11-21T06:15:31;99264.41;;;24.16;nan
31225;BME280;17847;31.524;74.366;2023-11-21T06:18:00;99268.50;;;24.29;nan
31225;BME280;17847;31.524;74.366;2023-11-21T06:20:30;99259.00;;;24.26;nan
31225;BME280;17847;31.524;74.366;2023-11-21T06:22:59;99250.59;;;24.23;nan
31225;BME280;17847;31.524;74.366;2023-11-21T06:25:33;99242.97;;;24.09;nan
31225;BME280;17847;31.524;74.366;2023-11-21T06:28:05;99235.44;;;24.16;nan
31225;BME280;17847;31.524;74.366;2023-11-21T06:30:34;99238.13;;;24.11;nan
31225;BME280;17847;31.524;74.366;2023-11-21T06:33:03;99229.72;;;24.03;nan
31225;BME280;17847;31.524;74.366;2023-11-21T06:35:33;99236.47;;;24.05;nan
31225;BME280;17847;31.524;74.366;2023-11-21T06:38:04;99233.50;;;24.07;nan
31225;BME280;17847;31.524;74.366;2023-11-21T06:40:33;99233.78;;;24.10;nan
31225;BME280;17847;31.524;74.366;2023-11-21T06:43:02;99227.00;;;24.13;nan
31225;BME280;17847;31.524;74.366;2023-11-21T06:45:34;99218.66;;;24.20;nan
31225;BME280;17847;31.524;74.366;2023-11-21T06:48:03;99221.66;;;24.28;nan
31225;BME280;17847;31.524;74.366;2023-11-21T06:50:32;99209.75;;;24.29;nan
31225;BME280;17847;31.524;74.366;2023-11-21T06:53:02;99211.09;;;24.32;nan
31225;BME280;17847;31.524;74.366;2023-11-21T06:55:32;99207.03;;;24.39;nan
31225;BME280;17847;31.524;74.366;2023-11-21T06:58:02;99195.69;;;24.37;nan
31225;BME280;17847;31.524;74.366;2023-11-21T07:00:31;99195.66;;;24.52;nan
31225;BME280;17847;31.524;74.366;2023-11-21T07:03:02;99194.84;;;24.67;nan
31225;BME280;17847;31.524;74.366;2023-11-21T07:05:31;99184.03;;;24.37;nan
31225;BME280;17847;31.524;74.366;2023-11-21T07:08:01;99185.66;;;24.53;nan
31225;BME280;17847;31.524;74.366;2023-11-21T07:10:33;99180.50;;;24.41;nan
31225;BME280;17847;31.524;74.366;2023-11-21T07:13:04;99175.91;;;24.42;nan
31225;BME280;17847;31.524;74.366;2023-11-21T07:15:33;99179.16;;;24.44;nan
31225;BME280;17847;31.524;74.366;2023-11-21T07:18:03;99176.47;;;24.34;nan
31225;BME280;17847;31.524;74.366;2023-11-21T07:20:32;99172.13;;;24.38;nan
31225;BME280;17847;31.524;74.366;2023-11-21T07:23:01;99161.81;;;24.30;nan
31225;BME280;17847;31.524;74.366;2023-11-21T07:25:32;99155.59;;;24.24;nan
31225;BME280;17847;31.524;74.366;2023-11-21T07:28:05;99156.41;;;24.20;nan
31225;BME280;17847;31.524;74.366;2023-11-21T07:30:35;99146.38;;;24.30;nan
31225;BME280;17847;31.524;74.366;2023-11-21T07:33:04;99150.72;;;24.26;nan
31225;BME280;17847;31.524;74.366;2023-11-21T07:35:34;99147.19;;;24.26;nan
31225;BME280;17847;31.524;74.366;2023-11-21T07:38:04;99146.66;;;24.29;nan
31225;BME280;17847;31.524;74.366;2023-11-21T07:40:33;99136.91;;;24.33;nan
31225;BME280;17847;31.524;74.366;2023-11-21T07:43:02;99138.81;;;24.37;nan
31225;BME280;17847;31.524;74.366;2023-11-21T07:45:32;99126.34;;;24.26;nan
31225;BME280;17847;31.524;74.366;2023-11-21T07:48:01;99121.22;;;24.25;nan
31225;BME280;17847;31.524;74.366;2023-11-21T07:50:32;99117.72;;;24.29;nan
31225;BME280;17847;31.524;74.366;2023-11-21T07:53:01;99110.66;;;24.33;nan
31225;BME280;17847;31.524;74.366;2023-11-21T07:55:34;99102.53;;;24.23;nan
31225;BME280;17847;31.524;74.366;2023-11-21T07:58:05;99101.72;;;24.23;nan
31225;BME280;17847;31.524;74.366;2023-11-21T08:00:34;99090.63;;;24.24;nan
31225;BME280;17847;31.524;74.366;2023-11-21T08:03:03;99090.34;;;24.26;nan
31225;BME280;17847;31.524;74.366;2023-11-21T08:05:33;99081.44;;;24.25;nan
31225;BME280;17847;31.524;74.366;2023-11-21T08:08:04;99074.13;;;24.21;nan
31225;BME280;17847;31.524;74.366;2023-11-21T08:10:34;99078.44;;;24.27;nan
31225;BME280;17847;31.524;74.366;2023-11-21T08:13:06;99068.69;;;24.10;nan
31225;BME280;17847;31.524;74.366;2023-11-21T08:15:37;99061.63;;;24.04;nan
31225;BME280;17847;31.524;74.366;2023-11-21T08:18:07;99051.38;;;24.01;nan
31225;BME280;17847;31.524;74.366;2023-11-21T08:20:36;99036.75;;;23.92;nan
31225;BME280;17847;31.524;74.366;2023-11-21T08:23:08;99036.19;;;23.95;nan
31225;BME280;17847;31.524;74.366;2023-11-21T08:25:38;99031.59;;;24.01;nan
31225;BME280;17847;31.524;74.366;2023-11-21T08:28:07;99025.94;;;24.02;nan
31225;BME280;17847;31.524;74.366;2023-11-21T08:30:37;99024.56;;;24.00;nan
31225;BME280;17847;31.524;74.366;2023-11-21T08:33:06;99026.44;;;24.09;nan
31225;BME280;17847;31.524;74.366;2023-11-21T08:35:37;99030.25;;;24.08;nan
31225;BME280;17847;31.524;74.366;2023-11-21T08:38:07;99015.63;;;23.99;nan
31225;BME280;17847;31.524;74.366;2023-11-21T08:40:39;99015.38;;;24.01;nan
31225;BME280;17847;31.524;74.366;2023-11-21T08:43:08;99004.84;;;23.89;nan
31225;BME280;17847;31.524;74.366;2023-11-21T08:45:37;99000.25;;;23.85;nan
31225;BME280;17847;31.524;74.366;2023-11-21T08:48:07;98997.25;;;23.86;nan
31225;BME280;17847;31.524;74.366;2023-11-21T08:50:37;98997.25;;;23.86;nan
31225;BME280;17847;31.524;74.366;2023-11-21T08:53:06;98993.72;;;23.86;nan
31225;BME280;17847;31.524;74.366;2023-11-21T08:55:36;98994.00;;;23.89;nan
31225;BME280;17847;31.524;74.366;2023-11-21T08:58:06;98987.78;;;23.94;nan
31225;BME280;17847;31.524;74.366;2023-11-21T09:00:35;98992.38;;;23.93;nan
31225;BME280;17847;31.524;74.366;2023-11-21T09:03:04;98988.03;;;23.92;nan
31225;BME280;17847;31.524;74.366;2023-11-21T09:05:40;98979.38;;;23.90;nan
31225;BME280;17847;31.524;74.366;2023-11-21T09:08:10;98983.19;;;23.89;nan
31225;BME280;17847;31.524;74.366;2023-11-21T09:10:40;98991.00;;;23.91;nan
31225;BME280;17847;31.524;74.366;2023-11-21T09:13:12;98986.72;;;23.90;nan
31225;BME280;17847;31.524;74.366;2023-11-21T09:15:41;98983.44;;;23.88;nan
31225;BME280;17847;31.524;74.366;2023-11-21T09:18:15;98971.28;;;23.85;nan
31225;BME280;17847;31.524;74.366;2023-11-21T09:20:45;98964.78;;;23.86;nan
31225;BME280;17847;31.524;74.366;2023-11-21T09:23:14;98964.25;;;23.84;nan
31225;BME280;17847;31.524;74.366;2023-11-21T09:25:43;98960.47;;;23.80;nan
31225;BME280;17847;31.524;74.366;2023-11-21T09:28:15;98963.69;;;23.82;nan
31225;BME280;17847;31.524;74.366;2023-11-21T09:30:46;98958.59;;;23.81;nan
31225;BME280;17847;31.524;74.366;2023-11-21T09:33:15;98952.88;;;23.82;nan
31225;BME280;17847;31.524;74.366;2023-11-21T09:35:45;98951.81;;;23.83;nan
31225;BME280;17847;31.524;74.366;2023-11-21T09:38:16;98946.94;;;23.80;nan
31225;BME280;17847;31.524;74.366;2023-11-21T09:40:45;98948.84;;;23.80;nan
31225;BME280;17847;31.524;74.366;2023-11-21T09:43:18;98950.19;;;23.77;nan
31225;BME280;17847;31.524;74.366;2023-11-21T09:45:56;98950.22;;;23.72;nan
31225;BME280;17847;31.524;74.366;2023-11-21T09:48:29;98957.25;;;23.63;nan
31225;BME280;17847;31.524;74.366;2023-11-21T09:51:00;98948.03;;;23.59;nan
31225;BME280;17847;31.524;74.366;2023-11-21T09:53:32;98953.44;;;23.59;nan
31225;BME280;17847;31.524;74.366;2023-11-21T09:56:04;98950.19;;;23.57;nan
31225;BME280;17847;31.524;74.366;2023-11-21T09:58:34;98948.84;;;23.54;nan
31225;BME280;17847;31.524;74.366;2023-11-21T10:01:04;98950.19;;;23.52;nan
31225;BME280;17847;31.524;74.366;2023-11-21T10:03:36;98941.28;;;23.51;nan
31225;BME280;17847;31.524;74.366;2023-11-21T10:06:08;98937.22;;;23.49;nan
31225;BME280;17847;31.524;74.366;2023-11-21T10:08:38;98938.31;;;23.48;nan
31225;BME280;17847;31.524;74.366;2023-11-21T10:11:15;98942.06;;;23.47;nan
31225;BME280;17847;31.524;74.366;2023-11-21T10:13:46;98933.66;;;23.43;nan
31225;BME280;17847;31.524;74.366;2023-11-21T10:16:19;98938.25;;;23.38;nan
31225;BME280;17847;31.524;74.366;2023-11-21T10:18:53;98936.09;;;23.35;nan
31225;BME280;17847;31.524;74.366;2023-11-21T10:21:35;98938.25;;;23.33;nan
31225;BME280;17847;31.524;74.366;2023-11-21T10:24:06;98929.06;;;23.28;nan
31225;BME280;17847;31.524;74.366;2023-11-21T10:26:36;98921.50;;;23.25;nan
31225;BME280;17847;31.524;74.366;2023-11-21T10:29:14;98921.75;;;23.24;nan
31225;BME280;17847;31.524;74.366;2023-11-21T10:31:52;98919.34;;;23.17;nan
31225;BME280;17847;31.524;74.366;2023-11-21T10:34:23;98917.69;;;23.11;nan
31225;BME280;17847;31.524;74.366;2023-11-21T10:36:53;98920.69;;;23.10;nan
31225;BME280;17847;31.524;74.366;2023-11-21T10:39:22;98920.94;;;23.03;nan
31225;BME280;17847;31.524;74.366;2023-11-21T10:41:52;98924.44;;;22.99;nan
31225;BME280;17847;31.524;74.366;2023-11-21T10:44:23;98922.53;;;22.94;nan
31225;BME280;17847;31.524;74.366;2023-11-21T10:46:55;98918.50;;;22.92;nan
31225;BME280;17847;31.524;74.366;2023-11-21T10:49:29;98923.88;;;22.87;nan
31225;BME280;17847;31.524;74.366;2023-11-21T10:51:59;98927.38;;;22.82;nan
31225;BME280;17847;31.524;74.366;2023-11-21T10:54:29;98926.53;;;22.76;nan
31225;BME280;17847;31.524;74.366;2023-11-21T10:57:00;98926.81;;;22.70;nan
31225;BME280;17847;31.524;74.366;2023-11-21T10:59:30;98928.38;;;22.61;nan
31225;BME280;17847;31.524;74.366;2023-11-21T11:02:02;98923.44;;;22.53;nan
31225;BME280;17847;31.524;74.366;2023-11-21T11:04:39;98922.38;;;22.54;nan
31225;BME280;17847;31.524;74.366;2023-11-21T11:07:12;98926.44;;;22.51;nan
31225;BME280;17847;31.524;74.366;2023-11-21T11:09:42;98928.03;;;22.47;nan
31225;BME280;17847;31.524;74.366;2023-11-21T11:12:14;98927.47;;;22.45;nan
31225;BME280;17847;31.524;74.366;2023-11-21T11:14:43;98931.53;;;22.43;nan
31225;BME280;17847;31.524;74.366;2023-11-21T11:17:14;98934.50;;;22.46;nan
31225;BME280;17847;31.524;74.366;2023-11-21T11:19:44;98924.19;;;22.33;nan
31225;BME280;17847;31.524;74.366;2023-11-21T11:28:07;98926.25;;;22.11;nan
31225;BME280;17847;31.524;74.366;2023-11-21T11:31:05;98927.06;;;22.11;nan
31225;BME280;17847;31.524;74.366;2023-11-21T11:34:01;98919.47;;;22.03;nan
31225;BME280;17847;31.524;74.366;2023-11-21T11:36:45;98920.00;;;22.05;nan
31225;BME280;17847;31.524;74.366;2023-11-21T11:39:30;98926.66;;;21.92;nan
31225;BME280;17847;31.524;74.366;2023-11-21T11:42:02;98919.91;;;21.90;nan
31225;BME280;17847;31.524;74.366;2023-11-21T11:47:29;98928.09;;;21.68;nan
31225;BME280;17847;31.524;74.366;2023-11-21T11:50:11;98927.84;;;21.38;nan
31225;BME280;17847;31.524;74.366;2023-11-21T11:52:50;98929.31;;;21.19;nan
31225;BME280;17847;31.524;74.366;2023-11-21T11:55:23;98939.13;;;21.08;nan
31225;BME280;17847;31.524;74.366;2023-11-21T11:57:54;98929.19;;;21.35;nan
31225;BME280;17847;31.524;74.366;2023-11-21T12:03:03;98935.47;;;21.14;nan
31225;BME280;17847;31.524;74.366;2023-11-21T12:05:34;98940.69;;;20.77;nan
31225;BME280;17847;31.524;74.366;2023-11-21T12:08:16;98932.31;;;20.74;nan
31225;BME280;17847;31.524;74.366;2023-11-21T12:10:46;98936.88;;;20.73;nan
31225;BME280;17847;31.524;74.366;2023-11-21T12:13:17;98937.28;;;20.38;nan
31225;BME280;17847;31.524;74.366;2023-11-21T12:15:47;98940.53;;;20.24;nan
31225;BME280;17847;31.524;74.366;2023-11-21T12:18:17;98940.00;;;20.05;nan
31225;BME280;17847;31.524;74.366;2023-11-21T12:20:47;98939.81;;;19.90;nan
31225;BME280;17847;31.524;74.366;2023-11-21T12:23:20;98946.66;;;19.81;nan
31225;BME280;17847;31.524;74.366;2023-11-21T12:25:50;98948.63;;;19.68;nan
31225;BME280;17847;31.524;74.366;2023-11-21T12:28:20;98945.47;;;19.55;nan
31225;BME280;17847;31.524;74.366;2023-11-21T12:30:52;98942.69;;;19.50;nan
31225;BME280;17847;31.524;74.366;2023-11-21T12:33:31;98932.09;;;19.43;nan
31225;BME280;17847;31.524;74.366;2023-11-21T12:36:00;98944.94;;;19.41;nan
31225;BME280;17847;31.524;74.366;2023-11-21T12:38:35;98950.13;;;19.31;nan
31225;BME280;17847;31.524;74.366;2023-11-21T12:41:09;98951.56;;;19.22;nan
31225;BME280;17847;31.524;74.366;2023-11-21T12:43:39;98960.34;;;19.17;nan
31225;BME280;17847;31.524;74.366;2023-11-21T12:46:12;98952.06;;;19.19;nan
31225;BME280;17847;31.524;74.366;2023-11-21T12:48:43;98959.44;;;19.12;nan
31225;BME280;17847;31.524;74.366;2023-11-21T12:51:15;98962.88;;;19.07;nan
31225;BME280;17847;31.524;74.366;2023-11-21T12:53:44;98963.59;;;19.03;nan
31225;BME280;17847;31.524;74.366;2023-11-21T12:56:15;98960.94;;;18.91;nan
31225;BME280;17847;31.524;74.366;2023-11-21T12:58:46;98960.38;;;18.89;nan
31225;BME280;17847;31.524;74.366;2023-11-21T13:01:20;98961.19;;;18.90;nan
31225;BME280;17847;31.524;74.366;2023-11-21T13:03:51;98957.50;;;18.79;nan
31225;BME280;17847;31.524;74.366;2023-11-21T13:06:21;98957.41;;;18.74;nan
31225;BME280;17847;31.524;74.366;2023-11-21T13:08:57;98962.19;;;18.72;nan
31225;BME280;17847;31.524;74.366;2023-11-21T13:11:28;98961.28;;;18.66;nan
31225;BME280;17847;31.524;74.366;2023-11-21T13:14:02;98970.59;;;18.64;nan
31225;BME280;17847;31.524;74.366;2023-11-21T13:16:32;98966.19;;;18.58;nan
31225;BME280;17847;31.524;74.366;2023-11-21T13:19:02;98963.19;;;18.54;nan
31225;BME280;17847;31.524;74.366;2023-11-21T13:21:32;98973.66;;;18.56;nan
31225;BME280;17847;31.524;74.366;2023-11-21T13:24:03;98966.19;;;18.46;nan
31225;BME280;17847;31.524;74.366;2023-11-21T13:26:33;98970.72;;;18.46;nan
31225;BME280;17847;31.524;74.366;2023-11-21T13:29:03;98979.84;;;18.45;nan
31225;BME280;17847;31.524;74.366;2023-11-21T13:31:33;98973.88;;;18.42;nan
31225;BME280;17847;31.524;74.366;2023-11-21T13:34:06;98981.38;;;18.40;nan
31225;BME280;17847;31.524;74.366;2023-11-21T13:36:37;98979.97;;;18.38;nan
31225;BME280;17847;31.524;74.366;2023-11-21T13:39:06;98983.34;;;18.33;nan